Time;durP1;ratioP1;P1;durP2;ratioP2;P2;SDS_P1;SDS_P2;PMS_P1;PMS_P2;Temp;Humidity;BMP_temperature;BMP_pressure;BME280_temperature;BME280_humidity;BME280_pressure;Samples;Min_cycle;Max_cycle;Signal;HPM_P1;HPM_P2
2022/08/31 00:04:11;;;;;;;;;;;;;;;24.20;51.00;95741.50;10249561;28;2298;-49
2022/08/31 00:09:12;;;;;;;;;;;;;;;24.19;51.20;95726.69;10243621;28;2354;-47
2022/08/31 00:14:12;;;;;;;;;;;;;;;24.19;50.97;95731.97;10245399;28;2270;-47
2022/08/31 00:19:13;;;;;;;;;;;;;;;24.19;50.93;95731.97;10246217;28;2291;-47
2022/08/31 00:24:13;;;;;;;;;;;;;;;24.21;51.23;95742.28;10248323;28;2301;-47
2022/08/31 00:29:13;;;;;;;;;;;;;;;24.20;51.12;95740.72;10245854;28;2297;-50
2022/08/31 00:34:13;;;;;;;;;;;;;;;24.21;51.18;95732.47;10243216;28;2279;-48
2022/08/31 00:39:14;;;;;;;;;;;;;;;24.21;51.51;95748.34;10246921;28;2444;-48
2022/08/31 00:44:14;;;;;;;;;;;;;;;24.23;51.42;95740.13;10243467;28;2316;-48
2022/08/31 00:49:17;;;;;;;;;;;;;;;24.22;51.21;95742.00;10247429;28;1959;-48
2022/08/31 00:54:18;;;;;;;;;;;;;;;24.23;51.48;95737.50;10256424;28;2412;-50
2022/08/31 00:59:19;;;;;;;;;;;;;;;24.23;51.54;95735.59;10242366;28;2026;-50
2022/08/31 01:04:19;;;;;;;;;;;;;;;24.23;51.41;95732.94;10257416;28;2279;-48
2022/08/31 01:09:23;;;;;;;;;;;;;;;24.22;51.83;95726.09;10254298;28;2382;-49
2022/08/31 01:14:24;;;;;;;;;;;;;;;24.22;51.65;95728.75;10244221;28;2314;-47
2022/08/31 01:19:42;;;;;;;;;;;;;;;24.22;51.79;95727.97;10243373;28;2386;-49
2022/08/31 01:24:43;;;;;;;;;;;;;;;24.22;51.83;95727.97;10242564;28;2456;-48
2022/08/31 01:29:43;;;;;;;;;;;;;;;24.24;51.75;95731.88;10257273;28;1995;-50
2022/08/31 01:34:44;;;;;;;;;;;;;;;24.25;51.67;95737.97;10240896;28;2251;-50
2022/08/31 01:39:44;;;;;;;;;;;;;;;24.25;51.62;95735.31;10241903;28;2468;-51
2022/08/31 01:44:44;;;;;;;;;;;;;;;24.26;51.83;95726.28;10249751;28;2048;-46
2022/08/31 01:49:45;;;;;;;;;;;;;;;24.25;51.68;95733.44;10241176;28;2037;-50
2022/08/31 01:54:45;;;;;;;;;;;;;;;24.24;51.59;95723.16;10244981;28;2325;-49
2022/08/31 01:59:45;;;;;;;;;;;;;;;24.22;51.88;95728.75;10239940;28;2085;-49
2022/08/31 02:04:46;;;;;;;;;;;;;;;24.20;51.55;95736.22;10241446;28;2012;-48
2022/08/31 02:09:46;;;;;;;;;;;;;;;24.20;51.68;95733.56;10242002;28;2306;-49
2022/08/31 02:14:47;;;;;;;;;;;;;;;24.16;51.70;95724.63;10237737;28;2352;-49
2022/08/31 02:19:47;;;;;;;;;;;;;;;24.16;51.47;95723.84;10243766;28;2282;-47
2022/08/31 02:24:47;;;;;;;;;;;;;;;24.14;51.35;95716.22;10243995;28;2065;-51
2022/08/31 02:29:49;;;;;;;;;;;;;;;24.14;51.38;95715.41;10249132;28;2337;-49
2022/08/31 02:34:50;;;;;;;;;;;;;;;24.15;51.37;95717.00;10249668;28;2283;-49
2022/08/31 02:39:50;;;;;;;;;;;;;;;24.13;51.67;95719.16;10245338;28;2463;-49
2022/08/31 02:44:50;;;;;;;;;;;;;;;24.12;51.39;95722.88;10248196;28;2317;-46
2022/08/31 02:49:51;;;;;;;;;;;;;;;24.10;51.59;95717.88;10247362;28;2141;-50
2022/08/31 02:54:51;;;;;;;;;;;;;;;24.13;51.33;95711.97;10245693;28;2310;-49
2022/08/31 02:59:51;;;;;;;;;;;;;;;24.10;51.24;95714.44;10246611;28;2355;-48
2022/08/31 03:04:51;;;;;;;;;;;;;;;24.14;51.59;95720.72;10246839;28;2379;-47
2022/08/31 03:10:03;;;;;;;;;;;;;;;24.14;51.46;95715.41;10248677;28;2666;-49
2022/08/31 03:15:07;;;;;;;;;;;;;;;24.13;51.32;95719.91;10247370;28;2420;-47
2022/08/31 03:20:08;;;;;;;;;;;;;;;24.15;51.55;95717.75;10252722;28;2308;-48
2022/08/31 03:25:08;;;;;;;;;;;;;;;24.16;51.53;95729.16;10244680;28;2302;-48
2022/08/31 03:30:10;;;;;;;;;;;;;;;24.15;51.22;95728.34;10247247;28;1972;-46
2022/08/31 03:35:12;;;;;;;;;;;;;;;24.14;51.38;95724.16;10245003;28;2434;-49
2022/08/31 03:40:15;;;;;;;;;;;;;;;24.13;51.48;95719.91;10246537;28;2590;-48
2022/08/31 03:45:15;;;;;;;;;;;;;;;24.13;51.30;95725.22;10244003;28;2473;-47
2022/08/31 03:50:15;;;;;;;;;;;;;;;24.11;51.58;95727.38;10247515;28;2335;-49
2022/08/31 03:55:18;;;;;;;;;;;;;;;24.11;51.72;95737.22;10247046;28;2333;-46
2022/08/31 04:00:19;;;;;;;;;;;;;;;24.12;51.42;95739.56;10247744;28;2010;-46
2022/08/31 04:05:20;;;;;;;;;;;;;;;24.14;51.37;95747.19;10242350;28;2331;-45
2022/08/31 04:10:21;;;;;;;;;;;;;;;24.14;51.28;95752.50;10244153;28;2353;-47
2022/08/31 04:15:22;;;;;;;;;;;;;;;24.15;51.39;95752.19;10245672;28;2289;-47
2022/08/31 04:20:22;;;;;;;;;;;;;;;24.15;51.39;95754.84;10244400;28;2357;-52
2022/08/31 04:25:22;;;;;;;;;;;;;;;24.15;51.40;95754.06;10246712;28;1971;-48
2022/08/31 04:30:23;;;;;;;;;;;;;;;24.14;51.59;95749.84;10247167;28;2385;-51
2022/08/31 04:35:23;;;;;;;;;;;;;;;24.15;51.54;95752.19;10246265;28;2361;-48
2022/08/31 04:40:23;;;;;;;;;;;;;;;24.14;51.65;95761.22;10248811;28;2361;-48
2022/08/31 04:45:24;;;;;;;;;;;;;;;24.16;51.34;95753.78;10246939;28;2350;-48
2022/08/31 04:50:24;;;;;;;;;;;;;;;24.13;51.62;95756.25;10245791;28;2307;-50
2022/08/31 04:55:24;;;;;;;;;;;;;;;24.10;51.41;95757.59;10246148;28;2323;-47
2022/08/31 05:00:25;;;;;;;;;;;;;;;24.08;51.22;95759.75;10239827;28;2006;-48
2022/08/31 05:05:26;;;;;;;;;;;;;;;24.05;50.91;95760.34;10239282;28;2361;-51
2022/08/31 05:10:26;;;;;;;;;;;;;;;24.04;51.37;95760.66;10234562;28;2342;-49
2022/08/31 05:15:26;;;;;;;;;;;;;;;24.07;51.04;95760.84;10237069;28;2310;-46
2022/08/31 05:20:26;;;;;;;;;;;;;;;24.08;51.00;95761.63;10243660;28;2346;-47
2022/08/31 05:25:27;;;;;;;;;;;;;;;24.09;51.04;95771.16;10242065;28;2337;-46
2022/08/31 05:30:28;;;;;;;;;;;;;;;24.06;51.18;95783.09;10241709;28;2295;-49
2022/08/31 05:35:30;;;;;;;;;;;;;;;23.97;50.55;95776.09;10245025;28;2326;-47
2022/08/31 05:40:36;;;;;;;;;;;;;;;23.36;51.00;95771.91;10243136;28;2396;-47
2022/08/31 05:45:40;;;;;;;;;;;;;;;23.04;51.16;95776.41;10236344;28;2307;-45
2022/08/31 05:50:41;;;;;;;;;;;;;;;22.77;52.09;95777.06;10239821;28;2367;-48
2022/08/31 05:55:41;;;;;;;;;;;;;;;22.61;52.37;95771.19;10235606;28;2349;-49
2022/08/31 06:00:42;;;;;;;;;;;;;;;22.51;52.88;95773.94;10236731;28;2379;-45
2022/08/31 06:05:42;;;;;;;;;;;;;;;22.36;53.25;95771.50;10237917;28;2286;-46
2022/08/31 06:10:42;;;;;;;;;;;;;;;22.25;53.81;95770.06;10239402;28;2393;-48
2022/08/31 06:15:43;;;;;;;;;;;;;;;22.18;53.85;95774.09;10248964;28;2360;-46
2022/08/31 06:20:43;;;;;;;;;;;;;;;22.06;53.98;95782.44;10239225;28;2346;-48
2022/08/31 06:25:44;;;;;;;;;;;;;;;21.93;54.18;95791.03;10239375;28;2111;-45
2022/08/31 06:30:44;;;;;;;;;;;;;;;21.92;54.38;95786.03;10234760;28;2328;-46
2022/08/31 06:35:44;;;;;;;;;;;;;;;21.95;54.87;95782.84;10245426;28;2364;-50
2022/08/31 06:40:45;;;;;;;;;;;;;;;22.24;54.50;95794.91;10228522;28;2378;-48
2022/08/31 06:45:45;;;;;;;;;;;;;;;22.50;53.87;95798.78;10223998;28;2323;-49
2022/08/31 06:50:45;;;;;;;;;;;;;;;22.71;53.50;95804.59;10229497;28;2380;-48
2022/08/31 06:55:45;;;;;;;;;;;;;;;22.84;53.43;95803.09;10239457;28;2009;-48
2022/08/31 07:00:47;;;;;;;;;;;;;;;22.95;52.94;95810.63;10232478;28;2365;-47
2022/08/31 07:05:47;;;;;;;;;;;;;;;23.05;52.67;95804.38;10229557;28;2338;-47
2022/08/31 07:10:48;;;;;;;;;;;;;;;23.14;52.69;95811.38;10236524;28;2318;-50
2022/08/31 07:15:48;;;;;;;;;;;;;;;23.22;52.49;95808.09;10236205;28;2298;-47
2022/08/31 07:20:48;;;;;;;;;;;;;;;23.28;52.49;95819.38;10239075;28;2384;-49
2022/08/31 07:25:49;;;;;;;;;;;;;;;23.35;52.51;95814.50;10241362;28;2300;-47
2022/08/31 07:30:50;;;;;;;;;;;;;;;23.41;52.26;95808.09;10249044;28;2283;-47
2022/08/31 07:35:50;;;;;;;;;;;;;;;23.46;52.20;95813.28;10242766;28;2316;-51
2022/08/31 07:46:15;;;;;;;;;;;;;;;23.61;51.95;95826.28;10237616;28;2429;-48
2022/08/31 07:51:22;;;;;;;;;;;;;;;23.64;51.75;95824.91;10240351;28;2327;-47
2022/08/31 07:56:22;;;;;;;;;;;;;;;23.68;51.86;95828.53;10236339;28;2355;-48
2022/08/31 08:01:22;;;;;;;;;;;;;;;23.74;51.57;95828.13;10233500;28;2365;-48
2022/08/31 08:06:27;;;;;;;;;;;;;;;23.76;51.59;95836.56;10238570;28;2291;-47
2022/08/31 08:11:28;;;;;;;;;;;;;;;23.79;51.84;95838.66;10239461;28;2365;-47
2022/08/31 08:16:28;;;;;;;;;;;;;;;23.80;51.75;95836.78;10236749;28;2284;-48
2022/08/31 08:21:29;;;;;;;;;;;;;;;23.84;51.75;95843.06;10237078;28;2402;-49
2022/08/31 08:26:29;;;;;;;;;;;;;;;23.87;51.60;95845.13;10239802;28;2370;-46
2022/08/31 08:31:29;;;;;;;;;;;;;;;23.89;51.29;95850.91;10237982;28;2617;-49
2022/08/31 08:36:30;;;;;;;;;;;;;;;23.90;51.67;95855.94;10237681;28;2633;-48
2022/08/31 08:41:30;;;;;;;;;;;;;;;23.92;51.56;95851.13;10240044;28;2684;-46
2022/08/31 08:46:32;;;;;;;;;;;;;;;23.93;51.60;95857.97;10238660;28;2289;-47
2022/08/31 08:51:35;;;;;;;;;;;;;;;23.94;51.73;95862.22;10237659;28;2659;-48
2022/08/31 08:56:40;;;;;;;;;;;;;;;23.97;51.60;95864.25;10235416;28;2764;-49
2022/08/31 09:01:43;;;;;;;;;;;;;;;23.97;51.65;95872.22;10236426;28;2606;-49
2022/08/31 09:06:45;;;;;;;;;;;;;;;23.91;52.34;95865.44;10249908;28;2607;-50
2022/08/31 09:12:06;;;;;;;;;;;;;;;23.79;52.63;95867.75;10253262;28;2401;-51
2022/08/31 09:17:10;;;;;;;;;;;;;;;23.74;52.68;95864.44;10214580;28;2338;-48
2022/08/31 09:22:10;;;;;;;;;;;;;;;23.71;53.33;95863.16;10250691;28;2545;-46
2022/08/31 09:27:17;;;;;;;;;;;;;;;23.72;54.70;95866.59;10250972;28;2601;-51
2022/08/31 09:32:22;;;;;;;;;;;;;;;23.69;55.11;95865.28;10265080;28;2380;-47
2022/08/31 09:37:23;;;;;;;;;;;;;;;23.67;55.52;95867.44;10250018;28;2717;-49
2022/08/31 09:42:32;;;;;;;;;;;;;;;23.68;55.55;95853.13;10242213;28;2599;-51
2022/08/31 09:47:46;;;;;;;;;;;;;;;23.67;56.18;95851.56;10249984;28;2293;-47
2022/08/31 09:58:10;;;;;;;;;;;;;;;23.69;57.23;95856.56;10236606;28;2681;-48
2022/08/31 10:03:17;;;;;;;;;;;;;;;23.67;57.02;95862.16;10248370;28;2620;-49
2022/08/31 10:08:38;;;;;;;;;;;;;;;23.68;58.00;95860.31;10233960;28;2683;-49
2022/08/31 10:13:41;;;;;;;;;;;;;;;23.71;58.49;95860.50;10249043;28;2569;-46
2022/08/31 10:18:54;;;;;;;;;;;;;;;23.68;58.84;95865.59;10251335;28;2747;-47
2022/08/31 10:23:58;;;;;;;;;;;;;;;23.69;59.38;95865.28;10234363;28;2689;-47
2022/08/31 10:28:59;;;;;;;;;;;;;;;23.60;56.04;95864.38;10251577;28;2562;-50
2022/08/31 10:39:24;;;;;;;;;;;;;;;23.25;56.13;95880.75;10244631;28;2741;-44
2022/08/31 10:44:27;;;;;;;;;;;;;;;23.24;56.28;95879.22;10250219;28;2622;-51
2022/08/31 10:49:28;;;;;;;;;;;;;;;23.32;57.66;95881.22;10262872;28;2636;-52
2022/08/31 10:54:39;;;;;;;;;;;;;;;23.32;58.24;95886.53;10240021;28;2657;-49
2022/08/31 10:59:45;;;;;;;;;;;;;;;23.35;58.37;95899.16;10244240;28;2297;-48
2022/08/31 11:04:45;;;;;;;;;;;;;;;;;;10244412;28;3024;-48
2022/08/31 11:09:45;;;;;;;;;;;;;;;23.36;59.14;95900.75;10237071;28;2273;-51
2022/08/31 11:15:08;;;;;;;;;;;;;;;23.39;58.93;95894.88;10246817;28;2616;-50
2022/08/31 11:20:08;;;;;;;;;;;;;;;23.41;59.55;95905.97;10235660;28;2620;-48
2022/08/31 11:25:14;;;;;;;;;;;;;;;23.40;59.51;95912.31;10241886;28;2601;-47
2022/08/31 11:30:23;;;;;;;;;;;;;;;23.39;59.46;95906.25;10243443;28;2541;-51
2022/08/31 11:35:42;;;;;;;;;;;;;;;23.36;59.18;95900.75;10234979;28;2540;-47
2022/08/31 11:40:56;;;;;;;;;;;;;;;23.39;59.54;95895.66;10237007;28;2614;-47
2022/08/31 11:46:00;;;;;;;;;;;;;;;23.40;59.75;95910.47;10251554;28;2356;-47
2022/08/31 11:51:02;;;;;;;;;;;;;;;23.40;59.24;95907.81;10243621;28;2620;-50
2022/08/31 11:56:03;;;;;;;;;;;;;;;23.42;59.32;95918.13;10236663;28;2610;-51
2022/08/31 12:01:08;;;;;;;;;;;;;;;23.42;60.49;95926.06;10253604;28;2277;-52
2022/08/31 12:06:32;;;;;;;;;;;;;;;23.53;61.07;95930.13;10255054;28;2652;-49
2022/08/31 12:11:40;;;;;;;;;;;;;;;23.57;61.21;95930.34;10210812;28;2598;-47
2022/08/31 12:16:45;;;;;;;;;;;;;;;23.59;61.69;95939.56;10255206;28;2647;-51
2022/08/31 12:27:18;;;;;;;;;;;;;;;23.62;61.94;95951.44;10238932;28;2584;-49
2022/08/31 12:32:18;;;;;;;;;;;;;;;23.63;61.87;95958.28;10250384;28;2670;-48
2022/08/31 12:37:22;;;;;;;;;;;;;;;23.62;61.90;95960.13;10245428;28;2628;-47
2022/08/31 12:42:25;;;;;;;;;;;;;;;23.64;61.68;95965.16;10242151;28;2541;-50
2022/08/31 12:47:28;;;;;;;;;;;;;;;23.64;61.66;95965.94;10246883;28;2633;-46
2022/08/31 12:52:58;;;;;;;;;;;;;;;23.67;61.71;95967.22;10237604;28;2610;-48
2022/08/31 12:58:04;;;;;;;;;;;;;;;23.67;62.14;95965.38;10236983;28;2590;-48
2022/08/31 13:03:24;;;;;;;;;;;;;;;23.69;62.41;95965.06;10241519;28;2331;-47
2022/08/31 13:08:24;;;;;;;;;;;;;;;23.68;62.27;95964.28;10219361;28;2723;-49
2022/08/31 13:13:26;;;;;;;;;;;;;;;23.69;61.91;95979.09;10239907;28;2399;-48
2022/08/31 13:18:27;;;;;;;;;;;;;;;23.69;62.19;95971.16;10234253;28;2566;-47
2022/08/31 13:23:38;;;;;;;;;;;;;;;23.68;60.87;95974.88;10233463;28;2239;-47
2022/08/31 13:28:38;;;;;;;;;;;;;;;23.48;58.71;95977.81;10238291;28;2618;-46
2022/08/31 13:33:39;;;;;;;;;;;;;;;23.46;59.69;95961.44;10236400;28;3222;-47
2022/08/31 13:38:45;;;;;;;;;;;;;;;23.42;57.67;95965.72;10250655;28;2555;-50
2022/08/31 13:43:52;;;;;;;;;;;;;;;23.19;56.93;95959.41;10251001;28;2566;-49
2022/08/31 13:49:00;;;;;;;;;;;;;;;23.05;56.74;95952.44;10239523;28;2516;-49
2022/08/31 13:54:02;;;;;;;;;;;;;;;22.96;57.06;95959.44;10236009;28;2555;-51
2022/08/31 13:59:15;;;;;;;;;;;;;;;22.99;57.59;95958.88;10236177;28;2578;-46
2022/08/31 14:09:49;;;;;;;;;;;;;;;22.93;56.52;95949.44;10242614;28;2608;-48
2022/08/31 14:15:13;;;;;;;;;;;;;;;22.92;56.20;95950.50;10247443;28;2371;-50
2022/08/31 14:20:32;;;;;;;;;;;;;;;22.85;55.87;95950.06;10232638;28;2667;-46
2022/08/31 14:25:33;;;;;;;;;;;;;;;22.78;55.86;95949.59;10246614;28;2582;-46
2022/08/31 14:30:34;;;;;;;;;;;;;;;22.77;55.76;95951.50;10234487;28;2483;-48
2022/08/31 14:35:34;;;;;;;;;;;;;;;22.80;55.32;95939.53;10233908;28;2519;-45
2022/08/31 14:40:34;;;;;;;;;;;;;;;22.75;55.34;95934.34;10232029;28;2570;-48
2022/08/31 14:45:36;;;;;;;;;;;;;;;22.70;55.23;95939.66;10233235;28;2344;-45
2022/08/31 14:50:36;;;;;;;;;;;;;;;22.67;55.57;95941.81;10246778;28;2405;-50
2022/08/31 14:55:38;;;;;;;;;;;;;;;22.64;55.58;95946.88;10248264;28;2600;-46
2022/08/31 15:00:42;;;;;;;;;;;;;;;22.62;55.98;95955.09;10230704;28;2667;-46
2022/08/31 15:05:42;;;;;;;;;;;;;;;22.59;55.65;95945.06;10224204;28;2412;-45
2022/08/31 15:10:45;;;;;;;;;;;;;;;22.68;55.97;95953.16;10237061;28;2587;-49
2022/08/31 15:15:46;;;;;;;;;;;;;;;22.70;55.85;95955.53;10237045;28;2281;-50
2022/08/31 15:20:47;;;;;;;;;;;;;;;22.72;56.38;95958.66;10238189;28;2722;-46
2022/08/31 15:25:47;;;;;;;;;;;;;;;22.65;55.97;95956.34;10254324;28;2336;-49
2022/08/31 15:30:48;;;;;;;;;;;;;;;22.64;55.40;95963.53;10242790;28;2564;-47
2022/08/31 15:35:48;;;;;;;;;;;;;;;22.65;55.65;95957.16;10248436;28;2609;-48
2022/08/31 15:40:48;;;;;;;;;;;;;;;22.71;56.43;95951.81;10243605;28;2368;-46
2022/08/31 15:45:56;;;;;;;;;;;;;;;22.76;55.68;95951.75;10238924;28;2630;-50
2022/08/31 15:51:00;;;;;;;;;;;;;;;22.72;56.22;95953.38;10252527;28;2562;-48
2022/08/31 15:56:05;;;;;;;;;;;;;;;22.66;55.38;95947.38;10240585;28;2329;-49
2022/08/31 16:01:11;;;;;;;;;;;;;;;22.65;55.78;95943.16;10241496;28;2587;-46
2022/08/31 16:06:11;;;;;;;;;;;;;;;22.72;56.35;95940.16;10243925;28;2564;-49
2022/08/31 16:11:12;;;;;;;;;;;;;;;22.72;56.59;95938.31;10242490;28;2570;-46
2022/08/31 16:16:17;;;;;;;;;;;;;;;22.67;55.40;95940.25;10240787;28;2301;-48
2022/08/31 16:21:18;;;;;;;;;;;;;;;22.55;55.31;95940.59;10238803;28;2572;-47
2022/08/31 16:26:20;;;;;;;;;;;;;;;22.50;55.63;95930.88;10240389;28;2613;-47
2022/08/31 16:31:23;;;;;;;;;;;;;;;22.50;55.63;95928.22;10237737;28;2518;-46
2022/08/31 16:36:24;;;;;;;;;;;;;;;22.50;56.06;95941.44;10238156;28;2570;-49
2022/08/31 16:41:34;;;;;;;;;;;;;;;22.52;55.70;95931.38;10234984;28;2886;-48
2022/08/31 16:46:35;;;;;;;;;;;;;;;22.51;56.16;95937.72;10239743;28;2483;-46
2022/08/31 16:51:35;;;;;;;;;;;;;;;22.48;55.46;95937.50;10231508;28;2621;-47
2022/08/31 16:56:36;;;;;;;;;;;;;;;22.48;55.76;95940.16;10239059;28;2609;-48
2022/08/31 17:01:43;;;;;;;;;;;;;;;22.48;56.17;95938.28;10239743;28;2325;-48
2022/08/31 17:06:43;;;;;;;;;;;;;;;22.44;55.48;95937.28;10238278;28;2630;-46
2022/08/31 17:11:47;;;;;;;;;;;;;;;22.39;55.28;95941.81;10239668;28;2445;-48
2022/08/31 17:16:51;;;;;;;;;;;;;;;22.29;54.96;95944.56;10234868;28;2339;-45
2022/08/31 17:21:51;;;;;;;;;;;;;;;22.23;54.97;95951.78;10239481;28;2574;-48
2022/08/31 17:26:52;;;;;;;;;;;;;;;22.21;54.28;95959.19;10236242;28;2356;-46
2022/08/31 17:31:53;;;;;;;;;;;;;;;22.11;54.20;95972.47;10236587;28;2658;-48
2022/08/31 17:36:54;;;;;;;;;;;;;;;22.07;54.25;95974.06;10236040;28;2546;-47
2022/08/31 17:41:54;;;;;;;;;;;;;;;22.08;54.39;95967.75;10242621;28;2324;-48
2022/08/31 17:46:55;;;;;;;;;;;;;;;22.08;54.21;95969.59;10236581;28;2584;-46
2022/08/31 17:51:56;;;;;;;;;;;;;;;22.09;54.44;95977.22;10235486;28;2632;-50
2022/08/31 17:56:59;;;;;;;;;;;;;;;22.09;53.96;95971.94;10253095;28;2716;-51
2022/08/31 18:02:01;;;;;;;;;;;;;;;22.07;54.32;95974.06;10236504;28;2725;-50
2022/08/31 18:07:01;;;;;;;;;;;;;;;22.09;54.39;95976.47;10236334;28;2323;-47
2022/08/31 18:12:02;;;;;;;;;;;;;;;22.09;54.36;95977.22;10234261;28;2578;-46
2022/08/31 18:17:03;;;;;;;;;;;;;;;22.29;54.70;95984.19;10234814;28;2631;-46
2022/08/31 18:22:04;;;;;;;;;;;;;;;22.46;55.23;95985.31;10235458;28;2607;-47
2022/08/31 18:27:05;;;;;;;;;;;;;;;22.57;55.42;95986.81;10244568;28;2736;-49
2022/08/31 18:32:06;;;;;;;;;;;;;;;22.69;55.70;95993.59;10241340;28;2330;-46
2022/08/31 18:37:06;;;;;;;;;;;;;;;22.77;55.66;95995.63;10245435;28;2690;-50
2022/08/31 18:47:27;;;;;;;;;;;;;;;22.89;55.77;96003.94;10243492;28;2269;-48
2022/08/31 18:52:27;;;;;;;;;;;;;;;22.90;55.58;95994.94;10243579;28;2618;-48
2022/08/31 18:57:28;;;;;;;;;;;;;;;22.92;55.35;96000.72;10246933;28;2745;-49
2022/08/31 19:02:28;;;;;;;;;;;;;;;22.93;55.42;96002.31;10240088;28;2625;-47
2022/08/31 19:07:28;;;;;;;;;;;;;;;22.95;55.75;95994.88;10254704;28;2617;-47
2022/08/31 19:12:29;;;;;;;;;;;;;;;22.96;55.47;95999.09;10272784;28;2328;-49
2022/08/31 19:17:29;;;;;;;;;;;;;;;22.97;55.41;96003.31;10255473;28;2734;-49
2022/08/31 19:22:30;;;;;;;;;;;;;;;22.99;55.28;96001.19;10243159;28;2653;-46
2022/08/31 19:27:32;;;;;;;;;;;;;;;22.99;55.42;95999.31;10259971;28;2287;-48
2022/08/31 19:32:33;;;;;;;;;;;;;;;23.02;55.41;95998.75;10250396;28;2481;-47
2022/08/31 19:37:35;;;;;;;;;;;;;;;23.03;55.19;95992.41;10249604;28;2773;-45
2022/08/31 19:42:36;;;;;;;;;;;;;;;23.06;55.14;95993.69;10247769;28;2670;-45
2022/08/31 19:47:37;;;;;;;;;;;;;;;23.06;55.03;95996.34;10244988;28;2349;-49
2022/08/31 19:52:38;;;;;;;;;;;;;;;23.04;54.97;95985.25;10247783;28;2377;-45
2022/08/31 19:57:38;;;;;;;;;;;;;;;23.07;54.87;95989.97;10252845;28;2343;-47
2022/08/31 20:02:40;;;;;;;;;;;;;;;23.11;54.90;95989.13;10246465;28;2448;-46
2022/08/31 20:07:44;;;;;;;;;;;;;;;23.03;53.50;95975.75;10246578;28;2732;-46
2022/08/31 20:12:45;;;;;;;;;;;;;;;23.08;54.51;95959.84;10249846;28;2242;-47
2022/08/31 20:17:46;;;;;;;;;;;;;;;23.11;54.17;95965.31;10247226;28;2686;-46
2022/08/31 20:22:47;;;;;;;;;;;;;;;23.21;56.37;95961.75;10244989;28;2543;-47
2022/08/31 20:27:47;;;;;;;;;;;;;;;23.24;56.14;95963.84;10248910;28;2593;-46
2022/08/31 20:32:47;;;;;;;;;;;;;;;23.18;56.22;95962.34;10242232;28;2312;-46
2022/08/31 20:37:48;;;;;;;;;;;;;;;23.15;56.46;95968.19;10249392;28;2663;-47
2022/08/31 20:42:48;;;;;;;;;;;;;;;23.24;56.20;95969.94;10242762;28;2666;-51
2022/08/31 20:53:08;;;;;;;;;;;;;;;23.28;56.89;95981.50;10253617;28;2659;-52
2022/08/31 20:58:08;;;;;;;;;;;;;;;23.28;57.38;95970.13;10257977;28;2675;-45
2022/08/31 21:03:15;;;;;;;;;;;;;;;23.29;57.32;95976.97;10246497;28;2341;-48
2022/08/31 21:08:16;;;;;;;;;;;;;;;23.27;57.06;95981.78;10244366;28;2324;-46
2022/08/31 21:13:16;;;;;;;;;;;;;;;23.27;57.92;95987.06;10249495;28;2336;-48
2022/08/31 21:18:17;;;;;;;;;;;;;;;23.25;58.30;95983.91;10242445;28;2854;-49
2022/08/31 21:23:18;;;;;;;;;;;;;;;23.25;58.37;95983.91;10245499;28;2614;-49
2022/08/31 21:28:18;;;;;;;;;;;;;;;23.23;58.11;95981.56;10252854;28;2590;-49
2022/08/31 21:33:18;;;;;;;;;;;;;;;23.24;58.36;95977.06;10265414;28;2566;-49
2022/08/31 21:38:19;;;;;;;;;;;;;;;23.22;58.30;95974.72;10249878;28;2341;-46
2022/08/31 21:43:20;;;;;;;;;;;;;;;23.22;58.78;95968.63;10253088;28;2257;-47
2022/08/31 21:48:20;;;;;;;;;;;;;;;23.20;58.85;95965.47;10256822;28;2654;-45
2022/08/31 21:53:26;;;;;;;;;;;;;;;23.20;58.86;95966.28;10253956;28;2559;-47
2022/08/31 21:58:28;;;;;;;;;;;;;;;23.19;59.13;95969.97;10255517;28;2603;-47
2022/08/31 22:03:34;;;;;;;;;;;;;;;23.20;58.89;95968.91;10248587;28;2621;-48
2022/08/31 22:08:35;;;;;;;;;;;;;;;23.21;59.01;95969.69;10241288;28;2694;-46
2022/08/31 22:13:36;;;;;;;;;;;;;;;23.17;59.18;95977.41;10240013;28;2925;-50
2022/08/31 22:18:56;;;;;;;;;;;;;;;23.17;59.18;95969.47;10242006;28;2654;-50
2022/08/31 22:23:57;;;;;;;;;;;;;;;23.17;58.63;95971.31;10242077;28;2405;-46
2022/08/31 22:28:58;;;;;;;;;;;;;;;23.17;58.92;95974.78;10245606;28;2663;-48
2022/08/31 22:33:58;;;;;;;;;;;;;;;23.16;59.07;95969.78;10236693;28;2384;-48
2022/08/31 22:39:00;;;;;;;;;;;;;;;23.13;59.71;95980.91;10245908;28;2415;-46
2022/08/31 22:44:00;;;;;;;;;;;;;;;23.14;59.51;95971.91;10249408;28;2361;-45
2022/08/31 22:49:00;;;;;;;;;;;;;;;23.15;59.69;95965.53;10253262;28;3029;-46
2022/08/31 22:54:01;;;;;;;;;;;;;;;23.14;59.38;95966.63;10250187;28;2710;-50
2022/08/31 22:59:02;;;;;;;;;;;;;;;23.12;59.84;95963.47;10250557;28;2313;-45
2022/08/31 23:04:06;;;;;;;;;;;;;;;23.10;60.04;95949.75;10261747;28;2650;-47
2022/08/31 23:09:07;;;;;;;;;;;;;;;23.10;59.91;95955.03;10250053;28;2634;-47
2022/08/31 23:14:07;;;;;;;;;;;;;;;23.09;59.67;95953.47;10241948;28;2625;-47
2022/08/31 23:19:11;;;;;;;;;;;;;;;23.07;59.76;95945.81;10247454;28;2321;-51
2022/08/31 23:24:11;;;;;;;;;;;;;;;23.10;59.82;95941.81;10249341;28;2621;-48
2022/08/31 23:29:12;;;;;;;;;;;;;;;23.07;59.89;95945.03;10260450;28;2558;-47
2022/08/31 23:34:12;;;;;;;;;;;;;;;23.07;59.75;95942.38;10247343;28;2621;-47
2022/08/31 23:39:12;;;;;;;;;;;;;;;23.04;59.90;95935.78;10250014;28;2565;-47
2022/08/31 23:44:19;;;;;;;;;;;;;;;23.08;59.54;95925.47;10251556;28;2697;-48
2022/08/31 23:49:24;;;;;;;;;;;;;;;23.07;59.53;95935.25;10245437;28;2375;-50
2022/08/31 23:54:25;;;;;;;;;;;;;;;23.08;59.89;95925.47;10250637;28;2652;-48
2022/08/31 23:59:26;;;;;;;;;;;;;;;23.08;59.50;95928.88;10247822;28;2624;-47
